Time;durP1;ratioP1;P1;durP2;ratioP2;P2;SDS_P1;SDS_P2;PMS_P1;PMS_P2;Temp;Humidity;BMP_temperature;BMP_pressure;BME280_temperature;BME280_humidity;BME280_pressure;Samples;Min_cycle;Max_cycle;Signal;HPM_P1;HPM_P2
2022/09/25 00:00:11;;;;;;;;;7.00;7.00;;;;;;;;5047134;28;45280;-82
2022/09/25 00:02:36;;;;;;;;;4.33;4.33;;;;;;;;5060966;28;45582;-82
2022/09/25 00:05:02;;;;;;;;;6.00;6.00;;;;;;;;5047511;28;45744;-81
2022/09/25 00:07:27;;;;;;;;;9.00;8.00;;;;;;;;5045812;28;45489;-81
2022/09/25 00:09:52;;;;;;;;;10.00;6.67;;;;;;;;5062410;28;45259;-81
2022/09/25 00:12:17;;;;;;;;;7.33;6.00;;;;;;;;5058098;28;45333;-81
2022/09/25 00:14:43;;;;;;;;;6.00;5.33;;;;;;;;5046027;28;45291;-81
2022/09/25 00:17:08;;;;;;;;;7.00;5.00;;;;;;;;5045733;28;45216;-82
2022/09/25 00:19:51;;;;;;;;;5.00;5.00;;;;;;;;5046571;28;45521;-81
2022/09/25 00:22:21;;;;;;;;;4.00;4.00;;;;;;;;5025493;28;45600;-80
2022/09/25 00:24:46;;;;;;;;;10.33;6.00;;;;;;;;5036159;28;46538;-80
2022/09/25 00:27:11;;;;;;;;;4.00;3.00;;;;;;;;5019774;28;45468;-81
2022/09/25 00:29:38;;;;;;;;;9.00;5.00;;;;;;;;5045327;28;45144;-81
2022/09/25 00:32:04;;;;;;;;;6.67;4.33;;;;;;;;5027079;28;45413;-80
2022/09/25 00:34:29;;;;;;;;;5.00;5.00;;;;;;;;5047012;28;45377;-80
2022/09/25 00:36:54;;;;;;;;;4.00;4.00;;;;;;;;5046363;28;45476;-81
2022/09/25 00:39:20;;;;;;;;;4.00;4.00;;;;;;;;5048010;28;44851;-81
2022/09/25 00:41:45;;;;;;;;;5.67;5.67;;;;;;;;5061536;28;45626;-81
2022/09/25 00:44:29;;;;;;;;;7.67;5.00;;;;;;;;5040040;28;46745;-81
2022/09/25 00:46:54;;;;;;;;;5.33;5.00;;;;;;;;5037925;28;45443;-81
2022/09/25 00:49:22;;;;;;;;;6.67;4.67;;;;;;;;5027389;28;45401;-82
2022/09/25 00:52:00;;;;;;;;;3.67;3.33;;;;;;;;5043405;28;45457;-81
2022/09/25 00:54:30;;;;;;;;;8.00;7.33;;;;;;;;5034452;28;48302;-81
2022/09/25 00:56:57;;;;;;;;;3.00;3.00;;;;;;;;5043280;28;45918;-80
2022/09/25 00:59:26;;;;;;;;;3.33;3.33;;;;;;;;5045497;28;45460;-81
2022/09/25 01:01:52;;;;;;;;;4.00;3.33;;;;;;;;5043919;28;45581;-80
2022/09/25 01:04:17;;;;;;;;;6.67;5.33;;;;;;;;5045852;28;46276;-80
2022/09/25 01:06:42;;;;;;;;;7.00;5.33;;;;;;;;5059446;28;45353;-81
2022/09/25 01:09:09;;;;;;;;;4.67;4.67;;;;;;;;5060621;28;45353;-81
2022/09/25 01:11:35;;;;;;;;;7.67;5.33;;;;;;;;5043796;28;45367;-81
2022/09/25 01:14:02;;;;;;;;;5.00;4.00;;;;;;;;5026890;28;47232;-80
2022/09/25 01:16:33;;;;;;;;;6.00;6.00;;;;;;;;5044345;28;45516;-80
2022/09/25 01:19:17;;;;;;;;;5.33;4.00;;;;;;;;5024382;28;45271;-81
2022/09/25 01:21:46;;;;;;;;;8.00;4.33;;;;;;;;5053097;28;45824;-81
2022/09/25 01:24:11;;;;;;;;;5.67;5.33;;;;;;;;5044118;28;45462;-80
2022/09/25 01:26:46;;;;;;;;;6.00;6.00;;;;;;;;5044126;28;45347;-80
2022/09/25 01:29:20;;;;;;;;;4.33;4.33;;;;;;;;5044961;28;45319;-80
2022/09/25 01:31:52;;;;;;;;;7.00;4.67;;;;;;;;5017636;28;45476;-80
2022/09/25 01:34:24;;;;;;;;;7.67;5.00;;;;;;;;5013230;28;47978;-80
2022/09/25 01:36:56;;;;;;;;;7.33;6.00;;;;;;;;5022771;28;45375;-81
2022/09/25 01:39:27;;;;;;;;;4.67;4.33;;;;;;;;5025690;28;45251;-81
2022/09/25 01:42:08;;;;;;;;;9.00;7.67;;;;;;;;5025886;28;45365;-80
2022/09/25 01:44:35;;;;;;;;;8.00;6.00;;;;;;;;5022868;28;45609;-80
2022/09/25 01:47:17;;;;;;;;;6.00;6.00;;;;;;;;5025020;28;45308;-80
2022/09/25 01:50:03;;;;;;;;;7.33;6.00;;;;;;;;5055411;28;45279;-80
2022/09/25 01:52:34;;;;;;;;;9.67;8.00;;;;;;;;5011884;28;45577;-80
2022/09/25 01:55:05;;;;;;;;;6.33;5.33;;;;;;;;5025458;28;46188;-80
2022/09/25 01:57:36;;;;;;;;;9.00;6.00;;;;;;;;5040146;28;45259;-80
2022/09/25 02:00:07;;;;;;;;;6.00;6.00;;;;;;;;5025963;28;45409;-80
2022/09/25 02:02:36;;;;;;;;;6.33;6.33;;;;;;;;5026017;28;45422;-81
2022/09/25 02:05:06;;;;;;;;;10.00;7.33;;;;;;;;5025955;28;45343;-80
2022/09/25 02:07:38;;;;;;;;;7.00;7.00;;;;;;;;5040357;28;46097;-79
2022/09/25 02:10:07;;;;;;;;;7.33;7.00;;;;;;;;5057672;28;45336;-79
2022/09/25 02:12:42;;;;;;;;;8.00;6.00;;;;;;;;5041154;28;45446;-80
2022/09/25 02:15:10;;;;;;;;;7.00;7.00;;;;;;;;5025933;28;46278;-80
2022/09/25 02:20:41;;;;;;;;;6.67;6.67;;;;;;;;5024962;28;45461;-79
2022/09/25 02:23:15;;;;;;;;;4.67;4.67;;;;;;;;5025301;28;45325;-80
2022/09/25 02:25:46;;;;;;;;;8.00;6.00;;;;;;;;5013082;28;46407;-79
2022/09/25 02:28:11;;;;;;;;;8.00;8.00;;;;;;;;5025605;28;45239;-80
2022/09/25 02:30:37;;;;;;;;;7.67;7.00;;;;;;;;5026169;28;45595;-79
2022/09/25 02:33:02;;;;;;;;;8.67;8.33;;;;;;;;5046726;28;45292;-79
2022/09/25 02:35:27;;;;;;;;;10.33;7.67;;;;;;;;5042403;28;46669;-80
2022/09/25 02:37:54;;;;;;;;;6.67;6.67;;;;;;;;5045743;28;45302;-79
2022/09/25 02:40:21;;;;;;;;;9.00;9.00;;;;;;;;5044580;28;45465;-79
2022/09/25 02:43:09;;;;;;;;;7.33;7.33;;;;;;;;5059912;28;45433;-80
2022/09/25 02:45:48;;;;;;;;;9.67;8.67;;;;;;;;5024304;28;47403;-80
2022/09/25 02:48:16;;;;;;;;;11.00;9.33;;;;;;;;5057643;28;45337;-79
2022/09/25 02:50:46;;;;;;;;;6.33;5.33;;;;;;;;5023517;28;45385;-80
2022/09/25 02:53:14;;;;;;;;;7.00;7.00;;;;;;;;5034125;28;45549;-79
2022/09/25 02:55:43;;;;;;;;;8.00;7.00;;;;;;;;5058847;28;47349;-79
2022/09/25 02:58:18;;;;;;;;;11.33;11.00;;;;;;;;5051281;28;45270;-80
2022/09/25 03:00:45;;;;;;;;;7.00;7.00;;;;;;;;5050713;28;45323;-79
2022/09/25 03:03:12;;;;;;;;;9.00;8.00;;;;;;;;5050811;28;45325;-80
2022/09/25 03:05:38;;;;;;;;;8.67;8.67;;;;;;;;5050290;28;46256;-79
2022/09/25 03:10:48;;;;;;;;;6.00;4.50;;;;;;;;5049905;28;45248;-80
2022/09/25 03:13:16;;;;;;;;;9.33;9.33;;;;;;;;5050216;28;45336;-79
2022/09/25 03:15:43;;;;;;;;;6.00;6.00;;;;;;;;5064534;28;48740;-79
2022/09/25 03:18:09;;;;;;;;;10.00;9.00;;;;;;;;5051198;28;45295;-80
2022/09/25 03:20:34;;;;;;;;;10.67;9.67;;;;;;;;5051454;28;45132;-79
2022/09/25 03:22:59;;;;;;;;;12.67;11.00;;;;;;;;5053620;28;45378;-80
2022/09/25 03:25:24;;;;;;;;;8.33;8.00;;;;;;;;5050952;28;46498;-79
2022/09/25 03:27:50;;;;;;;;;12.00;10.00;;;;;;;;5053585;28;45326;-79
2022/09/25 03:30:15;;;;;;;;;11.33;11.33;;;;;;;;5053756;28;45766;-80
2022/09/25 03:32:41;;;;;;;;;10.33;7.67;;;;;;;;5029536;28;45631;-80
2022/09/25 03:35:06;;;;;;;;;9.00;7.00;;;;;;;;5034130;28;48105;-80
2022/09/25 03:37:31;;;;;;;;;11.67;11.00;;;;;;;;5063449;28;45488;-80
2022/09/25 03:39:57;;;;;;;;;11.67;10.67;;;;;;;;5049744;28;45358;-80
2022/09/25 03:42:26;;;;;;;;;10.67;10.33;;;;;;;;5036733;28;45540;-79
2022/09/25 03:44:51;;;;;;;;;11.00;10.00;;;;;;;;5052336;28;45382;-79
2022/09/25 03:47:17;;;;;;;;;9.33;8.67;;;;;;;;5050484;28;45444;-79
2022/09/25 03:49:42;;;;;;;;;11.67;8.00;;;;;;;;5053249;28;45335;-79
2022/09/25 03:52:13;;;;;;;;;11.67;10.00;;;;;;;;5049512;28;45573;-79
2022/09/25 03:54:38;;;;;;;;;13.33;9.67;;;;;;;;5046177;28;45387;-79
2022/09/25 03:57:03;;;;;;;;;8.33;7.00;;;;;;;;5053661;28;45199;-78
2022/09/25 03:59:28;;;;;;;;;14.00;9.67;;;;;;;;5053485;28;45520;-79
2022/09/25 04:01:54;;;;;;;;;9.00;7.33;;;;;;;;5036102;28;45693;-79
2022/09/25 04:04:19;;;;;;;;;5.00;5.00;;;;;;;;5035281;28;46519;-79
2022/09/25 04:06:44;;;;;;;;;5.00;5.00;;;;;;;;5051214;28;45419;-79
2022/09/25 04:09:10;;;;;;;;;6.33;6.33;;;;;;;;5052195;28;45244;-79
2022/09/25 04:11:36;;;;;;;;;9.00;9.00;;;;;;;;5054688;28;45488;-80
2022/09/25 04:14:02;;;;;;;;;12.00;10.67;;;;;;;;5053425;28;45422;-79
2022/09/25 04:16:30;;;;;;;;;9.00;9.00;;;;;;;;5035821;28;45380;-79
2022/09/25 04:18:55;;;;;;;;;11.00;11.00;;;;;;;;5056451;28;45385;-80
2022/09/25 04:21:20;;;;;;;;;11.67;11.67;;;;;;;;5051155;28;45519;-79
2022/09/25 04:24:47;;;;;;;;;16.00;12.00;;;;;;;;5056916;28;45327;-79
2022/09/25 04:26:31;;;;;;;;;12.33;12.00;;;;;;;;5055023;28;45434;-79
2022/09/25 04:28:56;;;;;;;;;10.67;10.67;;;;;;;;5068974;28;45251;-80
2022/09/25 04:31:21;;;;;;;;;16.00;13.67;;;;;;;;5054466;28;45193;-81
2022/09/25 04:33:47;;;;;;;;;10.00;8.00;;;;;;;;5024826;28;47048;-80
2022/09/25 04:36:13;;;;;;;;;14.67;14.33;;;;;;;;5035185;28;45737;-80
2022/09/25 04:38:38;;;;;;;;;19.67;17.00;;;;;;;;5052160;28;44843;-80
2022/09/25 04:41:04;;;;;;;;;18.00;17.33;;;;;;;;5055092;28;45540;-81
2022/09/25 04:43:31;;;;;;;;;16.67;16.67;;;;;;;;5035205;28;46764;-80
2022/09/25 04:46:03;;;;;;;;;19.67;17.00;;;;;;;;5054481;28;44806;-80
2022/09/25 04:48:29;;;;;;;;;17.67;14.00;;;;;;;;5038723;28;45204;-80
2022/09/25 04:50:54;;;;;;;;;11.33;11.33;;;;;;;;5055677;28;45291;-80
2022/09/25 04:53:19;;;;;;;;;20.25;16.25;;;;;;;;5055288;28;45210;-81
2022/09/25 04:55:46;;;;;;;;;20.67;16.67;;;;;;;;5041067;28;45576;-80
2022/09/25 04:58:11;;;;;;;;;18.25;15.25;;;;;;;;5056140;28;45549;-79
2022/09/25 05:00:37;;;;;;;;;15.67;15.67;;;;;;;;5037405;28;45437;-80
2022/09/25 05:03:03;;;;;;;;;19.00;18.00;;;;;;;;5033554;28;47002;-79
2022/09/25 05:05:29;;;;;;;;;14.00;13.33;;;;;;;;5068802;28;45321;-80
2022/09/25 05:07:55;;;;;;;;;17.33;16.67;;;;;;;;5033567;28;45342;-79
2022/09/25 05:10:21;;;;;;;;;20.00;16.33;;;;;;;;5053373;28;45394;-80
2022/09/25 05:12:47;;;;;;;;;15.67;14.00;;;;;;;;5033651;28;47330;-81
2022/09/25 05:15:13;;;;;;;;;14.67;14.67;;;;;;;;5025888;28;45213;-80
2022/09/25 05:17:38;;;;;;;;;15.00;13.00;;;;;;;;5052716;28;45516;-79
2022/09/25 05:20:03;;;;;;;;;14.33;14.00;;;;;;;;5054766;28;45364;-79
2022/09/25 05:22:29;;;;;;;;;13.67;12.00;;;;;;;;5028525;28;47057;-78
2022/09/25 05:24:54;;;;;;;;;15.33;12.67;;;;;;;;5051632;28;45391;-79
2022/09/25 05:27:21;;;;;;;;;14.33;13.33;;;;;;;;5037141;28;45384;-79
2022/09/25 05:29:46;;;;;;;;;17.00;14.33;;;;;;;;5052283;28;45378;-81
2022/09/25 05:32:11;;;;;;;;;21.33;14.00;;;;;;;;5032985;28;45620;-79
2022/09/25 05:34:37;;;;;;;;;15.00;14.00;;;;;;;;5055863;28;45334;-80
2022/09/25 05:37:02;;;;;;;;;14.33;14.33;;;;;;;;5056843;28;45433;-81
2022/09/25 05:39:27;;;;;;;;;10.00;8.33;;;;;;;;5056394;28;45229;-80
2022/09/25 05:41:52;;;;;;;;;11.33;10.33;;;;;;;;5056152;28;45429;-81
2022/09/25 05:44:18;;;;;;;;;14.33;11.33;;;;;;;;5056053;28;44698;-81
2022/09/25 05:46:43;;;;;;;;;14.33;12.33;;;;;;;;5052939;28;46082;-80
2022/09/25 05:49:08;;;;;;;;;15.33;11.33;;;;;;;;5052031;28;45443;-80
2022/09/25 05:51:33;;;;;;;;;6.67;5.33;;;;;;;;5031411;28;47638;-80
2022/09/25 05:54:01;;;;;;;;;18.33;13.67;;;;;;;;5052565;28;45343;-80
2022/09/25 05:56:26;;;;;;;;;16.33;10.67;;;;;;;;5053818;28;45346;-80
2022/09/25 05:58:53;;;;;;;;;17.00;12.67;;;;;;;;5064695;28;45338;-80
2022/09/25 06:01:18;;;;;;;;;13.33;11.33;;;;;;;;5054629;28;45651;-80
2022/09/25 06:03:43;;;;;;;;;15.33;9.00;;;;;;;;5047862;28;45283;-80
2022/09/25 06:06:09;;;;;;;;;7.33;7.00;;;;;;;;5031283;28;45362;-80
2022/09/25 06:08:34;;;;;;;;;4.33;4.33;;;;;;;;5052119;28;45545;-80
2022/09/25 06:11:00;;;;;;;;;13.33;10.33;;;;;;;;5051417;28;45302;-79
2022/09/25 06:13:25;;;;;;;;;13.33;8.00;;;;;;;;5035814;28;45408;-79
2022/09/25 06:15:51;;;;;;;;;9.00;9.00;;;;;;;;5053740;28;45513;-80
2022/09/25 06:18:20;;;;;;;;;5.00;4.00;;;;;;;;5055993;28;45343;-78
2022/09/25 06:20:45;;;;;;;;;5.00;5.00;;;;;;;;5051133;28;46366;-79
2022/09/25 06:23:10;;;;;;;;;10.00;7.67;;;;;;;;5034308;28;45242;-79
2022/09/25 06:25:36;;;;;;;;;11.00;10.00;;;;;;;;5052388;28;45309;-79
2022/09/25 06:28:01;;;;;;;;;9.00;8.67;;;;;;;;5030234;28;45172;-79
2022/09/25 06:30:33;;;;;;;;;6.67;6.67;;;;;;;;5051150;28;45217;-79
2022/09/25 06:32:59;;;;;;;;;9.00;9.00;;;;;;;;5031774;28;45295;-79
2022/09/25 06:35:24;;;;;;;;;13.00;9.00;;;;;;;;5051585;28;45290;-80
2022/09/25 06:37:49;;;;;;;;;1.00;1.00;;;;;;;;5050742;28;44695;-79
2022/09/25 06:40:15;;;;;;;;;8.67;8.67;;;;;;;;5049606;28;45400;-79
2022/09/25 06:42:40;;;;;;;;;13.67;9.67;;;;;;;;5047559;28;45221;-80
2022/09/25 06:45:06;;;;;;;;;6.33;6.33;;;;;;;;5048763;28;45326;-80
2022/09/25 06:47:31;;;;;;;;;9.33;7.33;;;;;;;;5065053;28;45343;-80
2022/09/25 06:49:56;;;;;;;;;10.00;8.67;;;;;;;;5050283;28;46416;-80
2022/09/25 06:52:22;;;;;;;;;7.33;7.33;;;;;;;;5052095;28;45165;-80
2022/09/25 06:54:47;;;;;;;;;7.33;7.33;;;;;;;;5033704;28;45767;-80
2022/09/25 06:57:12;;;;;;;;;8.00;8.00;;;;;;;;5047111;28;45400;-80
2022/09/25 06:59:38;;;;;;;;;8.33;7.67;;;;;;;;5022822;28;47641;-80
2022/09/25 07:03:43;;;;;;;;;8.00;7.00;;;;;;;;5045378;28;45260;-80
2022/09/25 07:04:50;;;;;;;;;6.33;6.00;;;;;;;;5045832;28;45346;-79
2022/09/25 07:07:18;;;;;;;;;6.67;6.33;;;;;;;;5049992;28;45379;-78
2022/09/25 07:09:43;;;;;;;;;11.00;7.00;;;;;;;;5045526;28;46574;-79
2022/09/25 07:12:10;;;;;;;;;9.67;7.67;;;;;;;;5045315;28;45575;-78
2022/09/25 07:14:35;;;;;;;;;13.33;10.00;;;;;;;;5047116;28;45315;-80
2022/09/25 07:17:00;;;;;;;;;8.00;7.33;;;;;;;;5047662;28;45380;-79
2022/09/25 07:19:25;;;;;;;;;7.00;7.00;;;;;;;;5047556;28;47422;-79
2022/09/25 07:21:54;;;;;;;;;6.00;6.00;;;;;;;;5046431;28;45418;-79
2022/09/25 07:24:20;;;;;;;;;13.33;7.00;;;;;;;;5046858;28;45307;-79
2022/09/25 07:26:46;;;;;;;;;14.00;8.00;;;;;;;;5060882;28;45392;-79
2022/09/25 07:29:11;;;;;;;;;9.00;7.67;;;;;;;;5047122;28;46195;-79
2022/09/25 07:31:36;;;;;;;;;9.33;9.33;;;;;;;;5025542;28;45507;-79
2022/09/25 07:34:07;;;;;;;;;6.00;5.00;;;;;;;;5047078;28;44769;-80
2022/09/25 07:36:33;;;;;;;;;9.33;7.00;;;;;;;;5023262;28;45363;-79
2022/09/25 07:38:58;;;;;;;;;12.00;8.33;;;;;;;;5029603;28;48606;-80
2022/09/25 07:41:23;;;;;;;;;8.00;8.00;;;;;;;;5048609;28;45145;-80
2022/09/25 07:43:52;;;;;;;;;6.00;6.00;;;;;;;;5049715;28;45345;-80
2022/09/25 07:46:17;;;;;;;;;8.33;8.33;;;;;;;;5049942;28;45335;-80
2022/09/25 07:48:43;;;;;;;;;8.67;7.33;;;;;;;;5050852;28;46394;-80
2022/09/25 07:51:10;;;;;;;;;9.00;7.67;;;;;;;;5048457;28;45405;-79
2022/09/25 07:53:36;;;;;;;;;8.00;6.00;;;;;;;;5048088;28;45307;-79
2022/09/25 07:56:01;;;;;;;;;6.33;6.33;;;;;;;;5058587;28;45373;-79
2022/09/25 07:58:27;;;;;;;;;5.00;5.00;;;;;;;;5027297;28;47959;-80
2022/09/25 08:00:53;;;;;;;;;7.00;6.67;;;;;;;;5044888;28;45373;-78
2022/09/25 08:03:18;;;;;;;;;7.67;7.33;;;;;;;;5030211;28;45216;-79
2022/09/25 08:05:43;;;;;;;;;5.67;5.67;;;;;;;;5034031;28;46008;-79
2022/09/25 08:08:08;;;;;;;;;7.00;6.00;;;;;;;;5060748;28;47149;-79
2022/09/25 08:10:34;;;;;;;;;6.67;4.00;;;;;;;;5050171;28;45239;-80
2022/09/25 08:12:59;;;;;;;;;7.00;4.33;;;;;;;;5030661;28;45442;-80
2022/09/25 08:15:24;;;;;;;;;5.00;4.67;;;;;;;;5030251;28;45535;-81
2022/09/25 08:17:50;;;;;;;;;4.00;2.33;;;;;;;;5027130;28;46988;-80
2022/09/25 08:20:15;;;;;;;;;7.00;5.33;;;;;;;;5032353;28;45372;-80
2022/09/25 08:22:40;;;;;;;;;5.00;3.00;;;;;;;;5049878;28;45319;-80
2022/09/25 08:25:06;;;;;;;;;4.00;3.00;;;;;;;;5062165;28;45377;-80
2022/09/25 08:27:31;;;;;;;;;2.00;2.00;;;;;;;;5027845;28;45597;-80
2022/09/25 08:29:56;;;;;;;;;4.33;4.00;;;;;;;;5028271;28;46103;-81
2022/09/25 08:32:22;;;;;;;;;2.67;1.67;;;;;;;;5046264;28;45414;-80
2022/09/25 08:34:48;;;;;;;;;3.00;3.00;;;;;;;;5046911;28;45415;-80
2022/09/25 08:37:14;;;;;;;;;3.33;2.00;;;;;;;;5045443;28;45705;-81
2022/09/25 08:39:39;;;;;;;;;5.33;4.00;;;;;;;;5060531;28;45569;-81
2022/09/25 08:42:04;;;;;;;;;4.67;4.67;;;;;;;;5042370;28;45378;-83
2022/09/25 08:44:41;;;;;;;;;6.67;5.33;;;;;;;;5056941;28;45231;-83
2022/09/25 08:49:59;;;;;;;;;5.67;5.33;;;;;;;;5043859;28;45382;-82
2022/09/25 08:52:24;;;;;;;;;6.00;4.00;;;;;;;;5043610;28;45342;-82
2022/09/25 08:54:50;;;;;;;;;4.33;2.67;;;;;;;;5043321;28;45543;-83
2022/09/25 08:57:26;;;;;;;;;3.67;3.67;;;;;;;;5043639;28;45363;-83
2022/09/25 08:59:54;;;;;;;;;2.00;2.00;;;;;;;;5043842;28;45172;-84
2022/09/25 09:02:21;;;;;;;;;3.00;3.00;;;;;;;;5058144;28;45453;-81
2022/09/25 09:04:48;;;;;;;;;5.00;3.67;;;;;;;;5043382;28;45465;-81
2022/09/25 09:07:18;;;;;;;;;5.33;2.67;;;;;;;;5043321;28;46224;-82
2022/09/25 09:09:47;;;;;;;;;3.00;2.00;;;;;;;;5043982;28;45330;-81
2022/09/25 09:12:14;;;;;;;;;3.00;2.00;;;;;;;;5043387;28;45494;-82
2022/09/25 09:14:44;;;;;;;;;3.00;2.00;;;;;;;;5024082;28;45504;-81
2022/09/25 09:17:24;;;;;;;;;3.00;3.00;;;;;;;;5043447;28;46569;-81
2022/09/25 09:19:55;;;;;;;;;4.00;4.00;;;;;;;;5043852;28;45409;-81
2022/09/25 09:22:25;;;;;;;;;4.33;3.00;;;;;;;;5043528;28;45427;-81
2022/09/25 09:24:54;;;;;;;;;5.00;1.67;;;;;;;;5044303;28;45405;-82
2022/09/25 09:27:35;;;;;;;;;2.00;1.00;;;;;;;;5044003;28;45623;-82
2022/09/25 09:30:14;;;;;;;;;1.00;1.00;;;;;;;;5018342;28;45275;-82
2022/09/25 09:32:41;;;;;;;;;1.00;1.00;;;;;;;;5043299;28;45355;-81
2022/09/25 09:35:07;;;;;;;;;0.00;0.00;;;;;;;;5044670;28;45366;-82
2022/09/25 09:37:35;;;;;;;;;1.00;1.00;;;;;;;;5043081;28;45830;-82
2022/09/25 09:40:04;;;;;;;;;1.33;1.00;;;;;;;;5048989;28;45734;-82
2022/09/25 09:42:36;;;;;;;;;2.33;2.00;;;;;;;;5040334;28;45504;-83
2022/09/25 09:45:22;;;;;;;;;1.00;1.00;;;;;;;;5042920;28;45326;-82
2022/09/25 09:48:05;;;;;;;;;3.33;2.00;;;;;;;;5041818;28;46554;-82
2022/09/25 09:50:43;;;;;;;;;3.33;2.00;;;;;;;;5025202;28;45561;-83
2022/09/25 09:53:20;;;;;;;;;1.33;1.00;;;;;;;;5043072;28;45500;-82
2022/09/25 09:55:48;;;;;;;;;1.00;1.00;;;;;;;;5043411;28;45732;-82
2022/09/25 09:58:19;;;;;;;;;1.00;1.00;;;;;;;;5043235;28;46080;-81
2022/09/25 10:00:46;;;;;;;;;2.00;2.00;;;;;;;;5042529;28;45506;-82
2022/09/25 10:03:27;;;;;;;;;2.00;2.00;;;;;;;;5024635;28;45247;-82
2022/09/25 10:06:04;;;;;;;;;1.00;1.00;;;;;;;;5042997;28;45630;-81
2022/09/25 10:08:29;;;;;;;;;2.00;2.00;;;;;;;;5043042;28;45292;-82
2022/09/25 10:10:58;;;;;;;;;1.67;1.67;;;;;;;;5042698;28;45287;-82
2022/09/25 10:13:25;;;;;;;;;10.33;9.67;;;;;;;;5023015;28;45387;-82
2022/09/25 10:16:03;;;;;;;;;2.00;2.00;;;;;;;;5042661;28;45240;-82
2022/09/25 10:18:34;;;;;;;;;1.00;1.00;;;;;;;;5041060;28;45427;-82
2022/09/25 10:21:11;;;;;;;;;3.00;3.00;;;;;;;;5022013;28;45601;-82
2022/09/25 10:23:57;;;;;;;;;1.00;1.00;;;;;;;;5042829;28;45314;-83
2022/09/25 10:26:27;;;;;;;;;1.67;1.00;;;;;;;;5017690;28;45541;-82
2022/09/25 10:28:56;;;;;;;;;0.67;0.67;;;;;;;;5020785;28;45438;-82
2022/09/25 10:31:22;;;;;;;;;1.00;1.00;;;;;;;;5036226;28;45473;-83
2022/09/25 10:34:01;;;;;;;;;0.00;0.00;;;;;;;;5013007;28;45260;-82
2022/09/25 10:36:46;;;;;;;;;1.00;1.00;;;;;;;;5021746;28;45344;-83
2022/09/25 10:39:27;;;;;;;;;1.00;1.00;;;;;;;;5051569;28;48506;-82
2022/09/25 10:41:53;;;;;;;;;1.33;1.33;;;;;;;;5041889;28;45419;-82
2022/09/25 10:44:26;;;;;;;;;0.00;0.00;;;;;;;;5050495;28;45288;-82
2022/09/25 10:52:43;;;;;;;;;5.33;4.00;;;;;;;;5040796;28;45504;-81
2022/09/25 10:55:13;;;;;;;;;1.00;1.00;;;;;;;;5041513;28;45336;-81
2022/09/25 10:57:40;;;;;;;;;1.67;1.00;;;;;;;;5042218;28;45327;-82
2022/09/25 11:00:18;;;;;;;;;1.67;1.67;;;;;;;;5042319;28;46568;-82
2022/09/25 11:02:45;;;;;;;;;2.00;0.00;;;;;;;;5054920;28;45920;-82
2022/09/25 11:05:15;;;;;;;;;3.00;3.00;;;;;;;;5043950;28;45471;-81
2022/09/25 11:07:51;;;;;;;;;2.67;2.00;;;;;;;;5042892;28;45433;-83
2022/09/25 11:10:35;;;;;;;;;1.67;1.00;;;;;;;;5042990;28;45551;-82
2022/09/25 11:13:07;;;;;;;;;3.33;2.00;;;;;;;;5023572;28;45287;-82
2022/09/25 11:15:33;;;;;;;;;4.33;2.00;;;;;;;;5042380;28;45505;-82
2022/09/25 11:17:59;;;;;;;;;1.67;1.00;;;;;;;;5047390;28;45342;-82
2022/09/25 11:20:28;;;;;;;;;3.00;2.00;;;;;;;;5023600;28;47792;-82
2022/09/25 11:23:12;;;;;;;;;3.00;3.00;;;;;;;;5046364;28;45502;-81
2022/09/25 11:25:56;;;;;;;;;0.00;0.00;;;;;;;;5031139;28;45348;-82
2022/09/25 11:28:32;;;;;;;;;0.67;0.67;;;;;;;;5046611;28;45457;-82
2022/09/25 11:31:02;;;;;;;;;1.33;1.33;;;;;;;;5045538;28;45658;-82
2022/09/25 11:33:33;;;;;;;;;3.00;1.00;;;;;;;;5057906;28;45442;-82
2022/09/25 11:36:02;;;;;;;;;3.00;3.00;;;;;;;;5061805;28;45500;-82
2022/09/25 11:41:29;;;;;;;;;0.00;0.00;;;;;;;;5048773;28;45402;-82
2022/09/25 11:43:56;;;;;;;;;3.00;3.00;;;;;;;;5044686;28;45355;-82
2022/09/25 11:46:40;;;;;;;;;2.00;2.00;;;;;;;;5026258;28;45754;-82
2022/09/25 11:49:30;;;;;;;;;1.00;1.00;;;;;;;;5009110;28;45737;-81
2022/09/25 11:51:59;;;;;;;;;3.00;3.00;;;;;;;;5016362;28;48269;-82
2022/09/25 11:54:34;;;;;;;;;1.00;1.00;;;;;;;;5045616;28;45391;-82
2022/09/25 11:57:10;;;;;;;;;4.00;4.00;;;;;;;;5011075;28;45395;-81
2022/09/25 11:59:38;;;;;;;;;4.33;3.00;;;;;;;;5027529;28;45321;-83
2022/09/25 12:02:22;;;;;;;;;1.00;1.00;;;;;;;;5014923;28;46186;-81
2022/09/25 12:05:03;;;;;;;;;9.00;7.00;;;;;;;;5024384;28;45288;-82
2022/09/25 12:07:38;;;;;;;;;1.33;0.33;;;;;;;;5025007;28;45491;-82
2022/09/25 12:10:10;;;;;;;;;1.00;1.00;;;;;;;;5046238;28;45439;-82
2022/09/25 12:12:35;;;;;;;;;3.00;3.00;;;;;;;;5018744;28;48503;-81
2022/09/25 12:15:08;;;;;;;;;0.67;0.33;;;;;;;;5045339;28;45398;-82
2022/09/25 12:17:51;;;;;;;;;1.67;0.00;;;;;;;;5021981;28;45460;-83
2022/09/25 12:20:20;;;;;;;;;1.00;1.00;;;;;;;;5010422;28;45998;-82
2022/09/25 12:22:52;;;;;;;;;3.00;2.67;;;;;;;;5022146;28;47230;-81
2022/09/25 12:25:23;;;;;;;;;3.33;2.00;;;;;;;;5028612;28;45338;-79
2022/09/25 12:27:58;;;;;;;;;1.67;1.67;;;;;;;;5033822;28;45434;-81
2022/09/25 12:30:30;;;;;;;;;3.00;3.00;;;;;;;;5043146;28;45533;-82
2022/09/25 12:33:01;;;;;;;;;1.67;1.67;;;;;;;;5032764;28;45527;-81
2022/09/25 12:35:29;;;;;;;;;0.67;0.67;;;;;;;;5033186;28;45291;-82
2022/09/25 12:38:02;;;;;;;;;1.00;1.00;;;;;;;;5049419;28;45896;-81
2022/09/25 12:40:35;;;;;;;;;2.33;2.33;;;;;;;;5027017;28;45399;-82
2022/09/25 12:43:03;;;;;;;;;0.67;0.67;;;;;;;;5023629;28;47117;-81
2022/09/25 12:45:48;;;;;;;;;2.00;2.00;;;;;;;;5021027;28;45497;-80
2022/09/25 12:48:16;;;;;;;;;1.00;1.00;;;;;;;;5032235;28;45268;-81
2022/09/25 12:50:50;;;;;;;;;1.00;1.00;;;;;;;;5031204;28;45423;-81
2022/09/25 12:53:21;;;;;;;;;1.00;1.00;;;;;;;;5040287;28;46696;-81
2022/09/25 12:55:54;;;;;;;;;2.00;2.00;;;;;;;;5043609;28;45723;-81
2022/09/25 12:58:43;;;;;;;;;2.00;2.00;;;;;;;;5033977;28;45373;-81
2022/09/25 13:01:28;;;;;;;;;1.00;1.00;;;;;;;;5031921;28;47602;-81
2022/09/25 13:04:05;;;;;;;;;0.67;0.00;;;;;;;;5032981;28;45674;-80
2022/09/25 13:06:35;;;;;;;;;2.00;2.00;;;;;;;;5038309;28;45334;-81
2022/09/25 13:09:04;;;;;;;;;1.00;1.00;;;;;;;;5023231;28;45275;-79
2022/09/25 13:11:29;;;;;;;;;1.00;1.00;;;;;;;;5046688;28;45682;-81
2022/09/25 13:13:54;;;;;;;;;1.00;1.00;;;;;;;;5036432;28;45425;-81
2022/09/25 13:16:21;;;;;;;;;2.00;2.00;;;;;;;;5035373;28;45408;-79
2022/09/25 13:19:05;;;;;;;;;1.67;0.67;;;;;;;;5027179;28;45323;-81
2022/09/25 13:21:32;;;;;;;;;1.00;1.00;;;;;;;;5029534;28;45548;-79
2022/09/25 13:23:59;;;;;;;;;3.33;2.33;;;;;;;;5024779;28;46523;-80
2022/09/25 13:26:25;;;;;;;;;1.00;1.00;;;;;;;;5030484;28;45275;-81
2022/09/25 13:29:12;;;;;;;;;2.00;2.00;;;;;;;;5022449;28;45606;-81
2022/09/25 13:31:40;;;;;;;;;1.00;1.00;;;;;;;;5036664;28;54883;-81
2022/09/25 13:34:09;;;;;;;;;4.00;2.00;;;;;;;;5024345;28;45606;-82
2022/09/25 13:36:45;;;;;;;;;1.00;0.33;;;;;;;;5030979;28;45392;-79
2022/09/25 13:42:23;;;;;;;;;1.00;1.00;;;;;;;;5030595;28;45672;-82
2022/09/25 13:45:05;;;;;;;;;1.00;1.00;;;;;;;;5024326;28;45505;-82
2022/09/25 13:47:31;;;;;;;;;1.00;1.00;;;;;;;;5047053;28;45508;-82
2022/09/25 13:49:59;;;;;;;;;1.00;1.00;;;;;;;;5043202;28;45462;-82
2022/09/25 13:53:16;;;;;;;;;3.00;0.33;;;;;;;;5033151;28;45360;-82
2022/09/25 13:55:41;;;;;;;;;2.00;2.00;;;;;;;;5040466;28;46113;-82
2022/09/25 13:58:15;;;;;;;;;2.00;2.00;;;;;;;;5045113;28;45403;-82
2022/09/25 14:00:52;;;;;;;;;1.00;1.00;;;;;;;;5058793;28;45895;-83
2022/09/25 14:03:29;;;;;;;;;1.00;1.00;;;;;;;;5053036;28;45387;-83
2022/09/25 14:05:54;;;;;;;;;2.00;2.00;;;;;;;;5052768;28;46453;-83
2022/09/25 14:08:20;;;;;;;;;1.00;1.00;;;;;;;;5053604;28;46185;-84
2022/09/25 14:10:50;;;;;;;;;1.33;1.33;;;;;;;;5023816;28;46526;-83
2022/09/25 14:13:17;;;;;;;;;1.00;1.00;;;;;;;;5024469;28;45547;-83
2022/09/25 14:15:43;;;;;;;;;1.00;1.00;;;;;;;;5023797;28;47113;-83
2022/09/25 14:18:15;;;;;;;;;3.33;2.33;;;;;;;;5025307;28;46413;-84
2022/09/25 14:20:45;;;;;;;;;3.00;2.00;;;;;;;;5058826;28;45432;-82
2022/09/25 14:23:13;;;;;;;;;1.00;1.00;;;;;;;;5043385;28;45387;-83
2022/09/25 14:25:45;;;;;;;;;1.00;1.00;;;;;;;;5023426;28;47985;-82
2022/09/25 14:28:18;;;;;;;;;2.00;2.00;;;;;;;;5024290;28;45362;-83
2022/09/25 14:30:50;;;;;;;;;1.00;1.00;;;;;;;;5041106;28;45427;-81
2022/09/25 14:33:24;;;;;;;;;0.67;0.67;;;;;;;;5021778;28;45580;-81
2022/09/25 14:35:53;;;;;;;;;3.00;1.00;;;;;;;;5041772;28;45716;-83
2022/09/25 14:38:25;;;;;;;;;11.67;11.00;;;;;;;;5040416;28;45416;-80
2022/09/25 14:41:21;;;;;;;;;2.67;1.00;;;;;;;;5052401;28;45476;-81
2022/09/25 14:43:53;;;;;;;;;2.00;2.00;;;;;;;;5012580;28;45586;-82
2022/09/25 14:46:19;;;;;;;;;2.00;0.67;;;;;;;;5017673;28;45356;-82
2022/09/25 14:48:50;;;;;;;;;1.00;1.00;;;;;;;;5024439;28;46113;-81
2022/09/25 14:51:21;;;;;;;;;2.00;2.00;;;;;;;;5026471;28;45330;-84
2022/09/25 14:54:00;;;;;;;;;1.00;1.00;;;;;;;;5046574;28;45268;-82
2022/09/25 14:56:27;;;;;;;;;3.00;2.00;;;;;;;;5043959;28;46746;-82
2022/09/25 14:58:56;;;;;;;;;3.00;1.00;;;;;;;;5045743;28;45376;-81
2022/09/25 15:01:26;;;;;;;;;1.67;1.67;;;;;;;;5025643;28;45492;-81
2022/09/25 15:03:52;;;;;;;;;2.00;2.00;;;;;;;;5024698;28;45627;-82
2022/09/25 15:06:25;;;;;;;;;1.67;1.00;;;;;;;;5043267;28;47694;-81
2022/09/25 15:08:51;;;;;;;;;5.33;5.33;;;;;;;;5024525;28;45569;-81
2022/09/25 15:11:17;;;;;;;;;2.33;2.33;;;;;;;;5042423;28;45322;-81